169-й км

Карта отелей и гостиниц, располагающихся рядом с аэропортом 169-й км :

169-й км Новгородская область 59° 2' 47.04" N, 33° 34' 29.0388" E
169-й км Новгородская область 59° 2' 47.04" N, 33° 34' 29.0388" E
Код аэродрома ИКАО
HEZ2
Код аэродрома RU
ХЕЗ2
Координаты
N59.04640° E033.57473°
Превышение над уровнем моря
202
Основная полоса
01/19
Курс магнитный
008,9/188,9
Длина основной ВПП
20
Ширина основной ВПП
20
Покрытие основной ВПП
Твёрдое
Освещение ВПП
Нет
Тип: 
Вертодром
Класс аэродрома: 
Принадлежность: 
ГА
Статус: 
Действующий
Сайт: 
E-mail аэродрома: 
Страна: 
Россия
Регион: 
Новгородская область
Город: 
Дополнительная информация: 
Оператор: нет данных.

Найти трансфер

С помощью этой формы Вы можете найти трансфер из аэропорта 169-й км в город, аэропорт или вокзал:

Карта места

Javascript is required to view this map.

Погода в аэропортах:

Авиационная погода в Мирном

Регион: 
Погода METAR: 
UERR 061030Z 22004G09MPS 9999 -SN DRSN SCT006 M26/M30 Q1005 R25/820442 NOSIG RMK QFE723/0964
Время наблюдения
2021-12-06T10:30:00Z
Температура C
-26.0
Точка росы
-30.0
Направление ветра
220
Скорость ветра (узлы)
8
Метео видимость
6.21
Явления погоды
-SN DRSN
Условия полета
VFR
Аэропорт подробнее: 

Авиационная погода в Ровно

Регион: 
Погода METAR: 
UKLR 060800Z 14003MPS 110V170 2700 BR OVC003 M01/M01 Q1009 NOSIG
Время наблюдения
2021-12-06T08:00:00Z
Температура C
-1.0
Точка росы
-1.0
Направление ветра
140
Скорость ветра (узлы)
6
Метео видимость
1.68
Явления погоды
BR
Условия полета
LIFR
Аэропорт подробнее: 

Авиационная погода в Черновцах

Регион: 
Погода METAR: 
UKLN 060800Z 12002MPS 0200 0150SE R15/0225N FG VV001 01/01 Q1007 NOSIG
Время наблюдения
2021-12-06T08:00:00Z
Температура C
1.0
Точка росы
1.0
Направление ветра
120
Скорость ветра (узлы)
4
Метео видимость
0.12
Явления погоды
FG
Условия полета
LIFR
Аэропорт подробнее: 

Авиационная погода в Рощино

Регион: 
Погода METAR: 
USTR 060800Z 05002MPS 2100 -SHSN BR SCT009 OVC025CB M06/M07 Q1013 R12/350040 R03/350040 TEMPO 1200 SHSN VV004
Время наблюдения
2021-12-06T08:00:00Z
Температура C
-6.0
Точка росы
-7.0
Направление ветра
50
Скорость ветра (узлы)
4
Метео видимость
1.3
Явления погоды
-SHSN BR
Условия полета
IFR
Аэропорт подробнее: